Historyczne dane pomiarowe

Dodano dane terminowe – wersja testowa.

Dane z okresu 1951-2019

Wersja bazy: 1.34 [2019-03-16, lista zmian], aktualizacja planowana na 2019-04-15

Dane meteo z obszaru Polski uzyskane na podstawie danych udostępnionych przez Instytut Meteorologii i Gospodarki Wodnej – Państwowy Instytut Badawczy.

 

Wybierz Datę:    

       

TemperaturaWilgotnośćZachmurzenieWiatrCiśnienieWidzialnośćZjawiska
 Data    tng td wb rh cc ccl cl cm ch dir g1 g2 mslp ppp      
1994-08-11 00:00:00 13.6--- 12.7 13.195wxwxwx0wx--1010.1 991.6 0.0---wx
1994-08-11 01:00:00 13.0--- 12.5 12.797wxwxwx0wx--1009.8 991.3----wx
1994-08-11 02:00:00 13.2--- 12.7 12.997wxwxwx1wx--1009.6 991.1----wx
1994-08-11 03:00:00 12.7--- 12.4 12.598wxwxwxwx0wx--1009.2 990.7----wx
1994-08-11 04:00:00 12.3--- 12.0 12.198wxwxwxwx1wx--1009.1 990.6----wx
1994-08-11 05:00:00 14.6--- 13.9 14.296wxwxwx1wx--1008.5 990.1----wx
1994-08-11 06:00:00 17.5--- 13.7 15.278wxwxwx2wx--1008.2 990.0 0.0---wx
1994-08-11 07:00:00 20.3--- 13.2 16.064wxwxwx2wx--1007.5 989.5----wx
1994-08-11 08:00:00 21.9--- 14.4 17.262wxwxwx2wx--1006.8 988.9----wx
1994-08-11 09:00:00 22.9--- 13.3 17.055wxwxwxwx3wx--1006.4 988.6----wx
1994-08-11 10:00:00 23.9--- 12.6 17.049wxwxwx4wx--1005.5 987.8----wx
1994-08-11 11:00:00 24.5--- 12.2 17.046wxwxwxwx3wx--1005.3 987.6----wx
1994-08-11 12:00:00 24.5--- 12.2 17.046wxwxwxwx2wx--1004.8 987.1 0.0---wx
1994-08-11 13:00:00 24.1--- 12.9 17.249wxwxwx3wx--1004.4 986.7----wx
1994-08-11 14:00:00 23.9--- 12.6 17.049wxwxwx2wx--1004.0 986.3----wx
1994-08-11 15:00:00 23.5--- 13.3 17.253wxwxwx2wx--1003.9 986.2----wx
1994-08-11 16:00:00 22.5--- 13.2 16.856wxwxwxwx2wx--1004.0 986.2----wx
1994-08-11 17:00:00 21.9--- 12.9 16.457wxwxwxwx3wx--1004.0 986.2----wx
1994-08-11 18:00:00 20.8--- 12.5 15.859wxwxwxwx1wx--1004.5 986.6 0.0---wx
1994-08-11 19:00:00 19.2--- 13.4 15.769wxwxwxwx2wx--1004.8 986.8----wx
1994-08-11 20:00:00 18.2--- 16.0 16.887wxwxwx2wx--1004.7 986.6----wx
1994-08-11 21:00:00 17.6--- 15.2 16.186wxwxwxwx2wx--1005.0 986.9----wx
1994-08-11 22:00:00 17.0--- 15.4 16.090wxwxwxwx1wx--1005.2 987.0----wx
1994-08-11 23:00:00 16.3--- 15.2 15.693wxwxwxwx2wx--1005.1 986.9----wx

 

Źródłem pochodzenia danych jest Instytut Meteorologii i Gospodarki Wodnej – Państwowy Instytut Badawczy. Dane Instytutu Meteorologii i Gospodarki Wodnej – Państwowego Instytutu Badawczego zostały przetworzone.

Dane źródłowe można odnaleźć na stronie https://dane.imgw.pl